Map

Track Data

SID SEASON NUMBER BASIN SUBBASIN NAME ISO_TIME NATURE LAT LON WMO_WIND WMO_PRES WMO_AGENCY TRACK_TYPE DIST2LAND LANDFALL IFLAG USA_AGENCY USA_ATCF_ID USA_LAT USA_LON USA_RECORD USA_STATUS USA_WIND USA_PRES USA_SSHS USA_R34_NE USA_R34_SE USA_R34_SW USA_R34_NW USA_R50_NE USA_R50_SE USA_R50_SW USA_R50_NW USA_R64_NE USA_R64_SE USA_R64_SW USA_R64_NW USA_POCI USA_ROCI USA_RMW USA_EYE TOKYO_LAT TOKYO_LON TOKYO_GRADE TOKYO_WIND TOKYO_PRES TOKYO_R50_DIR TOKYO_R50_LONG TOKYO_R50_SHORT TOKYO_R30_DIR TOKYO_R30_LONG TOKYO_R30_SHORT TOKYO_LAND CMA_LAT CMA_LON CMA_CAT CMA_WIND CMA_PRES HKO_LAT HKO_LON HKO_CAT HKO_WIND HKO_PRES NEWDELHI_LAT NEWDELHI_LON NEWDELHI_GRADE NEWDELHI_WIND NEWDELHI_PRES NEWDELHI_CI NEWDELHI_DP NEWDELHI_POCI REUNION_LAT REUNION_LON REUNION_TYPE REUNION_WIND REUNION_PRES REUNION_TNUM REUNION_CI REUNION_RMW REUNION_R34_NE REUNION_R34_SE REUNION_R34_SW REUNION_R34_NW REUNION_R50_NE REUNION_R50_SE REUNION_R50_SW REUNION_R50_NW REUNION_R64_NE REUNION_R64_SE REUNION_R64_SW REUNION_R64_NW BOM_LAT BOM_LON BOM_TYPE BOM_WIND BOM_PRES BOM_TNUM BOM_CI BOM_RMW BOM_R34_NE BOM_R34_SE BOM_R34_SW BOM_R34_NW BOM_R50_NE BOM_R50_SE BOM_R50_SW BOM_R50_NW BOM_R64_NE BOM_R64_SE BOM_R64_SW BOM_R64_NW BOM_ROCI BOM_POCI BOM_EYE BOM_POS_METHOD BOM_PRES_METHOD NADI_LAT NADI_LON NADI_CAT NADI_WIND NADI_PRES WELLINGTON_LAT WELLINGTON_LON WELLINGTON_WIND WELLINGTON_PRES DS824_LAT DS824_LON DS824_STAGE DS824_WIND DS824_PRES TD9636_LAT TD9636_LON TD9636_STAGE TD9636_WIND TD9636_PRES TD9635_LAT TD9635_LON TD9635_WIND TD9635_PRES TD9635_ROCI NEUMANN_LAT NEUMANN_LON NEUMANN_CLASS NEUMANN_WIND NEUMANN_PRES MLC_LAT MLC_LON MLC_CLASS MLC_WIND MLC_PRES USA_GUST BOM_GUST BOM_GUST_PER REUNION_GUST REUNION_GUST_PER USA_SEAHGT USA_SEARAD_NE USA_SEARAD_SE USA_SEARAD_SW USA_SEARAD_NW STORM_SPEED STORM_DIR
1943061S16130 1943 21 SI WA NOT_NAMED 1943-03-01 23:00:00 NR -16.0000 129.800 main 0 0 __________O___ -1 -16.0000 129.800 7 22 319
1943061S16130 1943 21 SI WA NOT_NAMED 1943-03-01 23:30:00 NR -15.8632 129.674 992 bom main 0 0 ______O___P___ -1 -15.5000 129.500 992 -16.0447 129.761 7 16 314
1943061S16130 1943 21 SI WA NOT_NAMED 1943-03-02 00:00:00 TS -15.8170 129.598 main 0 0 ______P__OP___ -1 -15.5668 129.462 -15.5000 129.500 TC 45 992 -16.0895 129.722 7 8 222
1943061S16130 1943 21 SI WA NOT_NAMED 1943-03-02 03:00:00 NR -16.1900 129.373 main 0 0 ______P__PP___ -1 -15.9650 129.229 -15.6973 128.892 TC -16.3588 129.481 7 8 215
1943061S16130 1943 21 SI WA NOT_NAMED 1943-03-02 06:00:00 NR -16.4915 129.103 main 0 0 ______P__PP___ -1 -16.3517 128.987 -15.8926 128.286 TC -16.6313 129.220 7 8 220
1943061S16130 1943 21 SI WA NOT_NAMED 1943-03-02 09:00:00 NR -16.8135 128.825 main 0 0 ______P__PP___ -1 -16.7171 128.726 -16.0854 127.685 TC -16.9098 128.924 7 8 221
1943061S16130 1943 21 SI WA NOT_NAMED 1943-03-02 11:00:00 NR -17.0220 128.619 main 0 0 ______P__PO___ -1 -16.9440 128.538 -16.2123 127.290 TC -17.1000 128.700 7 9 224
1943061S16130 1943 21 SI WA NOT_NAMED 1943-03-02 12:00:00 NR -17.1240 128.509 main 0 0 ______P__PP___ -1 -17.0514 128.439 -16.2753 127.095 TC -17.1966 128.579 7 9 229
1943061S16130 1943 21 SI WA NOT_NAMED 1943-03-02 15:00:00 NR -17.4167 128.149 main 0 0 ______P__PP___ -1 -17.3448 128.118 -16.4617 126.518 TC -17.4885 128.181 7 9 232
1943061S16130 1943 21 SI WA NOT_NAMED 1943-03-02 18:00:00 NR -17.6805 127.751 main 0 0 ______P__PP___ -1 -17.5874 127.755 -16.6443 125.958 TC -17.7737 127.748 7 9 238
1943061S16130 1943 21 SI WA NOT_NAMED 1943-03-02 21:00:00 NR -17.9044 127.320 main 0 0 ______P__PP___ -1 -17.7693 127.342 -16.8227 125.421 TC -18.0395 127.299 7 9 244
1943061S16130 1943 21 SI WA NOT_NAMED 1943-03-02 23:00:00 NR -18.0259 127.017 main 0 0 ______P__PO___ -1 -17.8519 127.035 -16.9392 125.076 TC -18.2000 127.000 7 9 248
1943061S16130 1943 21 SI WA NOT_NAMED 1943-03-03 00:00:00 NR -18.0784 126.868 main 0 0 ______P__PP___ -1 -17.8804 126.871 -16.9967 124.908 TC -18.2764 126.866 7 9 251
1943061S16130 1943 21 SI WA NOT_NAMED 1943-03-03 01:00:00 NR -18.1248 126.716 996 bom main 0 0 ______O__PP___ -1 -17.9000 126.700 996 -17.0536 124.744 TC -18.3495 126.732 7 9 255
1943061S16130 1943 21 SI WA NOT_NAMED 1943-03-03 03:00:00 NR -18.1992 126.401 main 0 0 ______P__PP___ -1 -17.9127 126.337 -17.1659 124.426 TC -18.4858 126.465 7 9 259
1943061S16130 1943 21 SI WA NOT_NAMED 1943-03-03 06:00:00 NR -18.2740 125.902 main 0 0 ______P__PP___ -1 -17.8823 125.748 -17.3301 123.976 TC -18.6656 126.056 7 10 263
1943061S16130 1943 21 SI WA NOT_NAMED 1943-03-03 09:00:00 NR -18.3186 125.371 main 0 0 ______P__PP___ -1 -17.8213 125.126 -17.4890 123.564 TC -18.8160 125.617 7 10 266
1943061S16130 1943 21 SI WA NOT_NAMED 1943-03-03 11:00:00 NR -18.3398 125.001 main 0 0 ______P__PO___ -1 -17.7796 124.701 -17.5921 123.312 TC -18.9000 125.300 7 11 266
1943061S16130 1943 21 SI WA NOT_NAMED 1943-03-03 12:00:00 NR -18.3528 124.802 main 0 0 ______P__PP___ -1 -17.7620 124.488 -17.6427 123.193 TC -18.9436 125.116 7 12 266
1943061S16130 1943 21 SI WA NOT_NAMED 1943-03-03 15:00:00 NR -18.3959 124.191 main 0 0 ______P__PP___ -1 -17.7374 123.856 -17.7907 122.868 TC -19.0544 124.526 7 12 265
1943061S16130 1943 21 SI WA NOT_NAMED 1943-03-03 18:00:00 NR -18.4574 123.582 main 0 0 ______P__PP___ -1 -17.7803 123.246 -17.9331 122.591 TC -19.1345 123.918 7 11 262
1943061S16130 1943 21 SI WA NOT_NAMED 1943-03-03 21:00:00 NR -18.5539 123.010 main 0 0 ______P__PP___ -1 -17.9240 122.677 -18.0696 122.367 TC -19.1839 123.342 7 11 259
1943061S16130 1943 21 SI WA NOT_NAMED 1943-03-03 22:00:00 NR -18.5968 122.833 997 bom main 0 0 ______O__PP___ -1 -18.0000 122.500 997 -18.1137 122.305 TC -19.1936 123.166 7 10 254
1943061S16130 1943 21 SI WA NOT_NAMED 1943-03-03 23:00:00 NR -18.6484 122.662 main 0 0 ______P__PO___ -1 -18.0969 122.325 997 -18.1572 122.249 TC -19.2000 123.000 7 10 262
1943061S16130 1943 21 SI WA NOT_NAMED 1943-03-04 00:00:00 TS -18.6451 122.473 main 0 0 ______P__OP___ -1 -18.1992 122.157 997 -18.2000 122.200 TC 35 997 -19.2022 122.858 7 10 270
1943061S16130 1943 21 SI WA NOT_NAMED 1943-03-04 01:00:00 TS -18.6485 122.322 997 bom main 0 0 ______O__PP___ -1 -18.3000 122.000 997 -18.2421 122.157 TC -19.2002 122.726 7 7 263
1943061S16130 1943 21 SI WA NOT_NAMED 1943-03-04 03:00:00 TS -18.6891 122.113 main 0 0 ______P__PP___ -1 -18.4657 121.755 -18.3242 122.090 TC -19.1862 122.487 7 5 255
1943061S16130 1943 21 SI WA NOT_NAMED 1943-03-04 06:00:00 TS -18.7500 121.910 main 0 0 ______P__PP___ -1 -18.6571 121.532 -18.4420 122.022 TC -19.1510 122.175 7 3 248
1943061S16130 1943 21 SI WA NOT_NAMED 1943-03-04 09:00:00 TS -18.8197 121.771 main 0 0 ______P__PP___ -1 -18.7907 121.443 -18.5531 121.979 TC -19.1152 121.890 7 3 242
1943061S16130 1943 21 SI WA NOT_NAMED 1943-03-04 11:00:00 TS -18.8589 121.698 main 0 0 ______P__PO___ -1 -18.8534 121.439 -18.6234 121.956 TC -19.1000 121.700 7 2 240
1943061S16130 1943 21 SI WA NOT_NAMED 1943-03-04 12:00:00 TS -18.8786 121.659 main 0 0 ______P__PP___ -1 -18.8781 121.448 -18.6574 121.943 TC -19.1004 121.586 7 2 242
1943061S16130 1943 21 SI WA NOT_NAMED 1943-03-04 15:00:00 TS -18.9324 121.546 main 15 10 ______P__PP___ -1 -18.9306 121.503 -18.7546 121.895 TC -19.1122 121.240 7 2 245
1943061S16130 1943 21 SI WA NOT_NAMED 1943-03-04 18:00:00 TS -18.9804 121.428 main 15 15 ______P__PP___ -1 -18.9596 121.565 -18.8443 121.817 TC -19.1373 120.902 7 3 249
1943061S16130 1943 21 SI WA NOT_NAMED 1943-03-04 21:00:00 TS -19.0251 121.291 main 23 23 ______P__PP___ -1 -18.9765 121.592 -18.9262 121.692 TC -19.1724 120.588 7 3 252
1943061S16130 1943 21 SI WA NOT_NAMED 1943-03-04 23:00:00 TS -19.0544 121.181 main 23 23 ______P__PO___ -1 -18.9867 121.570 -18.9764 121.572 TC -19.2000 120.400 7 3 255
1943061S16130 1943 21 SI WA NOT_NAMED 1943-03-05 00:00:00 TS -19.0682 121.121 main 30 30 ______P__OP___ -1 -18.9928 121.542 -19.0000 121.500 TC 40 994 -19.2119 120.320 7 4 259
1943061S16130 1943 21 SI WA NOT_NAMED 1943-03-05 01:00:00 TS -19.0784 121.045 994 bom main 38 38 ______O__PP___ -1 -19.0000 121.500 994 -19.0105 121.390 TC -19.2247 120.246 7 5 264
1943061S16130 1943 21 SI WA NOT_NAMED 1943-03-05 03:00:00 TS -19.0953 120.840 main 53 53 ______P__PP___ -1 -19.0078 121.265 -19.0254 121.145 TC -19.2528 120.110 7 6 266
1943061S16130 1943 21 SI WA NOT_NAMED 1943-03-05 06:00:00 TS -19.1172 120.504 main 69 69 ______P__PP___ -1 -19.0093 120.854 -19.0406 120.733 TC -19.3016 119.924 7 7 266
1943061S16130 1943 21 SI WA NOT_NAMED 1943-03-05 09:00:00 TS -19.1445 120.143 main 88 78 ______P__PP___ -1 -19.0148 120.400 -19.0605 120.293 TC -19.3581 119.737 7 7 265
1943061S16130 1943 21 SI WA NOT_NAMED 1943-03-05 11:00:00 TS -19.1712 119.896 main 84 84 ______P__PO___ -1 -19.0297 120.090 -19.0838 119.999 TC -19.4000 119.600 7 7 263
1943061S16130 1943 21 SI WA NOT_NAMED 1943-03-05 12:00:00 TS -19.1873 119.768 main 88 88 ______P__PP___ -1 -19.0426 119.936 -19.1001 119.855 TC -19.4192 119.513 7 7 260
1943061S16130 1943 21 SI WA NOT_NAMED 1943-03-05 15:00:00 TS -19.2559 119.393 main 88 78 ______P__PP___ -1 -19.1115 119.496 -19.1748 119.448 TC -19.4815 119.235 7 7 255
1943061S16130 1943 21 SI WA NOT_NAMED 1943-03-05 18:00:00 TS -19.3644 119.052 main 78 78 ______P__OP___ -1 -19.2404 119.110 -19.3000 119.100 TC -19.5527 118.946 7 7 249
1943061S16130 1943 21 SI WA NOT_NAMED 1943-03-05 19:00:00 TS -19.4115 118.951 bom main 78 70 ______O__PP___ -1 -19.3000 119.000 -19.3554 119.002 TC -19.5790 118.851 7 6 242
1943061S16130 1943 21 SI WA NOT_NAMED 1943-03-05 21:00:00 TS -19.5096 118.765 main 74 69 ______P__PP___ -1 -19.4029 118.815 -19.4834 118.828 TC -19.6361 118.668 7 6 237
1943061S16130 1943 21 SI WA NOT_NAMED 1943-03-05 23:00:00 TS -19.6285 118.595 main 76 68 ______P__PO___ -1 -19.5583 118.650 -19.6262 118.674 TC -19.7000 118.500 7 6 231
1943061S16130 1943 21 SI WA NOT_NAMED 1943-03-06 00:00:00 TS -19.7005 118.512 main 76 67 ______P__OP___ -1 -19.6662 118.574 -19.7000 118.600 TC 85 960 -19.7349 118.428 7 7 224
1943061S16130 1943 21 SI WA NOT_NAMED 1943-03-06 01:00:00 NR -19.7859 118.430 960 bom main 67 44 ______O___P___ -1 -19.8000 118.500 960 4 TC -19.7717 118.360 7 7 214
1943061S16130 1943 21 SI WA NOT_NAMED 1943-03-06 03:00:00 NR -19.9971 118.296 main 44 33 ______P___P___ -1 -20.1437 118.357 960 TC -19.8506 118.235 7 8 210
1943061S16130 1943 21 SI WA NOT_NAMED 1943-03-06 03:50:00 NR -20.0926 118.243 960 bom main 33 11 ______O___P___ -1 -20.3000 118.300 960 TC -19.8851 118.186 7 8 207
1943061S16130 1943 21 SI WA NOT_NAMED 1943-03-06 06:00:00 NR -20.3359 118.109 main 11 0 ______P___P___ -1 -20.6937 118.153 -19.9782 118.065 7 7 207
1943061S16130 1943 21 SI WA NOT_NAMED 1943-03-06 09:00:00 NR -20.6576 117.929 main 0 0 ______P___P___ -1 -21.2039 117.951 -20.1113 117.906 7 7 208
1943061S16130 1943 21 SI WA NOT_NAMED 1943-03-06 11:00:00 NR -20.8623 117.809 main 0 0 ______P___O___ -1 -21.5246 117.818 -20.2000 117.800 7 7 210
1943061S16130 1943 21 SI WA NOT_NAMED 1943-03-06 12:00:00 NR -20.9557 117.749 main 0 0 ______P___P___ -1 -21.6797 117.752 -20.2318 117.745 7 6 212
1943061S16130 1943 21 SI WA NOT_NAMED 1943-03-06 15:00:00 NR -21.2252 117.569 main 0 0 ______P___P___ -1 -22.1275 117.555 -20.3230 117.582 7 6 212
1943061S16130 1943 21 SI WA NOT_NAMED 1943-03-06 18:00:00 NR -21.4907 117.386 main 0 0 ______P___P___ -1 -22.5536 117.358 -20.4277 117.415 7 6 212
1943061S16130 1943 21 SI WA NOT_NAMED 1943-03-06 21:00:00 NR -21.7677 117.198 main 0 0 ______P___P___ -1 -22.9646 117.162 -20.5709 117.233 7 5 225
1943061S16130 1943 21 SI WA NOT_NAMED 1943-03-06 23:00:00 NR -21.7857 117.071 main 0 0 ______P___O___ -1 -23.2333 117.031 -20.7000 117.100 7 5 306
1943061S16130 1943 21 SI WA NOT_NAMED 1943-03-07 00:00:00 NR -21.6376 117.001 main 0 0 ______P___P___ -1 -23.3668 116.966 -20.7730 117.018 7 13 341
1943061S16130 1943 21 SI WA NOT_NAMED 1943-03-07 01:00:00 NR -21.3823 116.926 1000 bom main 0 0 ______O___P___ -1 -23.5000 116.900 1000 -20.8528 116.932 7 13 339
1943061S16130 1943 21 SI WA NOT_NAMED 1943-03-07 03:00:00 NR -21.0325 116.753 main 0 0 __________P___ -1 -21.0325 116.753 7 5 274
1943061S16130 1943 21 SI WA NOT_NAMED 1943-03-07 06:00:00 NR -21.3501 116.481 main 0 0 __________P___ -1 -21.3501 116.481 7 8 215
1943061S16130 1943 21 SI WA NOT_NAMED 1943-03-07 09:00:00 NR -21.7226 116.235 main 0 0 __________P___ -1 -21.7226 116.235 7 9 209
1943061S16130 1943 21 SI WA NOT_NAMED 1943-03-07 11:00:00 NR -22.0000 116.100 main 0 0 __________O___ -1 -22.0000 116.100 7 9 203
1943061S16130 1943 21 SI WA NOT_NAMED 1943-03-07 12:00:00 NR -22.1470 116.045 main 0 0 __________P___ -1 -22.1470 116.045 7 10 195
1943061S16130 1943 21 SI WA NOT_NAMED 1943-03-07 15:00:00 NR -22.6170 115.923 main 0 0 __________P___ -1 -22.6170 115.923 7 10 190
1943061S16130 1943 21 SI WA NOT_NAMED 1943-03-07 18:00:00 NR -23.1205 115.853 main 0 0 __________P___ -1 -23.1205 115.853 7 10 185
1943061S16130 1943 21 SI WA NOT_NAMED 1943-03-07 21:00:00 NR -23.6449 115.816 main 0 0 __________P___ -1 -23.6449 115.816 7 11 183
1943061S16130 1943 21 SI WA NOT_NAMED 1943-03-07 23:00:00 NR -24.0000 115.800 main 0 __________O___ -1 -24.0000 115.800 7 11 184

About IBTrACS Database

This database is a web-friendly format of International Best Track Archive for Climate Stewardship (IBTrACS), a global best track data archive curated by NOAA dating back to 1842.

Updated: 2021-10-08